sensor_id;sensor_type;location;lat;lon;timestamp;pressure;altitude;pressure_sealevel;temperature;humidity
62980;BME280;49075;53.988;27.678;2023-02-18T00:01:18;970.1;;;-2;89.9
62980;BME280;49075;53.988;27.678;2023-02-18T00:06:46;970;;;-2;90.3
62980;BME280;49075;53.988;27.678;2023-02-18T00:12:06;969.8;;;-2;90.2
62980;BME280;49075;53.988;27.678;2023-02-18T00:16:18;969.7;;;-2.1;90.4
62980;BME280;49075;53.988;27.678;2023-02-18T00:21:46;969.6;;;-2;90.2
62980;BME280;49075;53.988;27.678;2023-02-18T00:26:18;969.5;;;-2;90.1
62980;BME280;49075;53.988;27.678;2023-02-18T00:31:18;969.4;;;-2.1;90.3
62980;BME280;49075;53.988;27.678;2023-02-18T00:37:08;969.2;;;-2.2;91.1
62980;BME280;49075;53.988;27.678;2023-02-18T00:41:36;969;;;-2.1;90.8
62980;BME280;49075;53.988;27.678;2023-02-18T00:47:00;968.9;;;-2;90.1
62980;BME280;49075;53.988;27.678;2023-02-18T00:51:50;968.8;;;-2.1;90.5
62980;BME280;49075;53.988;27.678;2023-02-18T00:56:18;968.6;;;-2.1;90.6
62980;BME280;49075;53.988;27.678;2023-02-18T01:02:06;968.5;;;-2.1;90.5
62980;BME280;49075;53.988;27.678;2023-02-18T01:06:44;968.2;;;-2;90.1
62980;BME280;49075;53.988;27.678;2023-02-18T01:12:00;968;;;-2.1;90.6
62980;BME280;49075;53.988;27.678;2023-02-18T01:16:38;967.9;;;-2.1;90.4
62980;BME280;49075;53.988;27.678;2023-02-18T01:21:18;967.8;;;-2;90.5
62980;BME280;49075;53.988;27.678;2023-02-18T01:26:18;967.6;;;-2;90.2
62980;BME280;49075;53.988;27.678;2023-02-18T01:32:08;967.5;;;-1.9;90.3
62980;BME280;49075;53.988;27.678;2023-02-18T01:36:52;967.4;;;-1.8;89.7
62980;BME280;49075;53.988;27.678;2023-02-18T01:41:30;967.2;;;-1.7;89.5
62980;BME280;49075;53.988;27.678;2023-02-18T01:47:08;967.1;;;-1.8;89.8
62980;BME280;49075;53.988;27.678;2023-02-18T01:51:38;967.1;;;-1.7;89.7
62980;BME280;49075;53.988;27.678;2023-02-18T01:56:55;966.9;;;-1.6;89.2
62980;BME280;49075;53.988;27.678;2023-02-18T02:01:52;966.9;;;-1.7;89.6
62980;BME280;49075;53.988;27.678;2023-02-18T02:07:00;966.8;;;-1.6;89.5
62980;BME280;49075;53.988;27.678;2023-02-18T02:12:12;966.7;;;-1.7;89.8
62980;BME280;49075;53.988;27.678;2023-02-18T02:16:37;966.6;;;-1.6;89.7
62980;BME280;49075;53.988;27.678;2023-02-18T02:22:14;966.6;;;-1.6;89.8
62980;BME280;49075;53.988;27.678;2023-02-18T02:27:11;966.5;;;-1.5;89
62980;BME280;49075;53.988;27.678;2023-02-18T02:31:23;966.4;;;-1.4;88.8
62980;BME280;49075;53.988;27.678;2023-02-18T02:37:09;966.4;;;-1.3;88.6
62980;BME280;49075;53.988;27.678;2023-02-18T02:41:53;966.3;;;-1.5;89.7
62980;BME280;49075;53.988;27.678;2023-02-18T02:47:08;966.2;;;-1.3;89.4
62980;BME280;49075;53.988;27.678;2023-02-18T02:51:51;966.2;;;-1.2;88.8
62980;BME280;49075;53.988;27.678;2023-02-18T02:56:18;966.2;;;-1.1;89
62980;BME280;49075;53.988;27.678;2023-02-18T03:02:12;966.1;;;-0.9;88.1
62980;BME280;49075;53.988;27.678;2023-02-18T03:06:44;966.1;;;-1;88.9
62980;BME280;49075;53.988;27.678;2023-02-18T03:12:09;966.1;;;-0.8;88.9
62980;BME280;49075;53.988;27.678;2023-02-18T03:16:52;966.1;;;-0.7;88.6
62980;BME280;49075;53.988;27.678;2023-02-18T03:21:20;966.2;;;-0.5;88.3
62980;BME280;49075;53.988;27.678;2023-02-18T03:27:09;966.1;;;-0.4;88.7
62980;BME280;49075;53.988;27.678;2023-02-18T03:31:36;966.1;;;-0.2;88.1
62980;BME280;49075;53.988;27.678;2023-02-18T03:37:08;966;;;0;87.6
62980;BME280;49075;53.988;27.678;2023-02-18T03:42:08;966;;;0.1;87.2
62980;BME280;49075;53.988;27.678;2023-02-18T03:46:30;966;;;0.2;87
62980;BME280;49075;53.988;27.678;2023-02-18T03:52:08;965.9;;;0.4;86.3
62980;BME280;49075;53.988;27.678;2023-02-18T03:56:38;965.7;;;0.4;86.2
62980;BME280;49075;53.988;27.678;2023-02-18T04:02:08;965.6;;;0.5;85.9
62980;BME280;49075;53.988;27.678;2023-02-18T04:06:52;965.5;;;0.5;85.9
62980;BME280;49075;53.988;27.678;2023-02-18T04:11:30;965.5;;;0.5;85.8
62980;BME280;49075;53.988;27.678;2023-02-18T04:17:08;965.5;;;0.5;85.9
62980;BME280;49075;53.988;27.678;2023-02-18T04:21:18;965.5;;;0.6;85.6
62980;BME280;49075;53.988;27.678;2023-02-18T04:27:06;965.5;;;0.5;85.8
62980;BME280;49075;53.988;27.678;2023-02-18T04:31:50;965.5;;;0.6;85.5
62980;BME280;49075;53.988;27.678;2023-02-18T04:36:30;965.4;;;0.6;85.5
62980;BME280;49075;53.988;27.678;2023-02-18T04:42:06;965.4;;;0.6;85.7
62980;BME280;49075;53.988;27.678;2023-02-18T04:46:52;965.3;;;0.7;85.6
62980;BME280;49075;53.988;27.678;2023-02-18T04:52:08;965.3;;;0.6;85.8
62980;BME280;49075;53.988;27.678;2023-02-18T04:56:36;965.3;;;0.7;85.7
62980;BME280;49075;53.988;27.678;2023-02-18T05:01:30;965.3;;;0.7;85.8
62980;BME280;49075;53.988;27.678;2023-02-18T05:07:08;965.3;;;0.7;85.8
62980;BME280;49075;53.988;27.678;2023-02-18T05:11:30;965.2;;;0.7;86.1
62980;BME280;49075;53.988;27.678;2023-02-18T05:16:52;965.2;;;0.8;85.7
62980;BME280;49075;53.988;27.678;2023-02-18T05:22:08;965.2;;;0.8;85.8
62980;BME280;49075;53.988;27.678;2023-02-18T05:26:18;965.2;;;0.8;85.8
62980;BME280;49075;53.988;27.678;2023-02-18T05:32:08;965.2;;;1.2;84.5
62980;BME280;49075;53.988;27.678;2023-02-18T05:36:38;965.1;;;1.1;84.6
62980;BME280;49075;53.988;27.678;2023-02-18T05:42:06;965.1;;;1.1;84.7
62980;BME280;49075;53.988;27.678;2023-02-18T05:46:52;965.1;;;1.2;84.6
62980;BME280;49075;53.988;27.678;2023-02-18T05:51:18;965.1;;;1.3;84.2
62980;BME280;49075;53.988;27.678;2023-02-18T05:56:52;965.1;;;1.3;84
62980;BME280;49075;53.988;27.678;2023-02-18T06:01:36;965.1;;;1.3;84
62980;BME280;49075;53.988;27.678;2023-02-18T06:07:08;965.1;;;1.3;83.8
62980;BME280;49075;53.988;27.678;2023-02-18T06:11:52;965.1;;;1.2;83.8
62980;BME280;49075;53.988;27.678;2023-02-18T06:16:44;965.1;;;1.1;84.1
62980;BME280;49075;53.988;27.678;2023-02-18T06:21:52;965.1;;;1;84.3
62980;BME280;49075;53.988;27.678;2023-02-18T06:26:38;965;;;1;84.3
62980;BME280;49075;53.988;27.678;2023-02-18T06:32:06;965;;;1.1;84.3
62980;BME280;49075;53.988;27.678;2023-02-18T06:36:50;965;;;1.1;84.1
62980;BME280;49075;53.988;27.678;2023-02-18T06:41:32;965;;;1.1;84.1
62980;BME280;49075;53.988;27.678;2023-02-18T06:46:50;965;;;1.2;83.9
62980;BME280;49075;53.988;27.678;2023-02-18T06:51:24;965;;;1.2;83.9
62980;BME280;49075;53.988;27.678;2023-02-18T06:57:06;965.1;;;1.7;83
62980;BME280;49075;53.988;27.678;2023-02-18T07:01:48;965.1;;;1.6;82.7
62980;BME280;49075;53.988;27.678;2023-02-18T07:06:18;965.1;;;1.4;82.9
62980;BME280;49075;53.988;27.678;2023-02-18T07:11:50;965.1;;;1.4;83.2
62980;BME280;49075;53.988;27.678;2023-02-18T07:16:18;965.2;;;1.3;83.3
62980;BME280;49075;53.988;27.678;2023-02-18T07:22:00;965.2;;;1.3;83.4
62980;BME280;49075;53.988;27.678;2023-02-18T07:26:40;965.2;;;1.4;83.1
62980;BME280;49075;53.988;27.678;2023-02-18T07:31:42;965.2;;;1.3;83.1
62980;BME280;49075;53.988;27.678;2023-02-18T07:36:48;965.2;;;1.3;83
62980;BME280;49075;53.988;27.678;2023-02-18T07:41:34;965.2;;;1.4;83
62980;BME280;49075;53.988;27.678;2023-02-18T07:47:04;965.2;;;1.3;83.3
62980;BME280;49075;53.988;27.678;2023-02-18T07:51:48;965.2;;;1.4;83
62980;BME280;49075;53.988;27.678;2023-02-18T07:56:44;965.1;;;1.3;83.1
62980;BME280;49075;53.988;27.678;2023-02-18T08:01:50;965.2;;;1.2;83.5
62980;BME280;49075;53.988;27.678;2023-02-18T08:06:50;965.2;;;1.3;83.4
62980;BME280;49075;53.988;27.678;2023-02-18T08:12:06;965.2;;;1.4;83.2
62980;BME280;49075;53.988;27.678;2023-02-18T08:16:50;965.1;;;1.5;83.1
62980;BME280;49075;53.988;27.678;2023-02-18T08:21:59;965.1;;;1.5;82.9
62980;BME280;49075;53.988;27.678;2023-02-18T08:26:50;965.1;;;1.6;82.7
62980;BME280;49075;53.988;27.678;2023-02-18T08:31:32;965.1;;;1.6;82.5
62980;BME280;49075;53.988;27.678;2023-02-18T08:37:06;965.1;;;1.7;82.3
62980;BME280;49075;53.988;27.678;2023-02-18T08:41:18;965.1;;;1.7;82
62980;BME280;49075;53.988;27.678;2023-02-18T08:46:30;965.1;;;1.8;81.9
62980;BME280;49075;53.988;27.678;2023-02-18T08:51:50;965.1;;;1.8;81.8
62980;BME280;49075;53.988;27.678;2023-02-18T08:57:06;965.2;;;2.1;81.4
62980;BME280;49075;53.988;27.678;2023-02-18T09:02:06;965.2;;;2;81.3
62980;BME280;49075;53.988;27.678;2023-02-18T09:06:50;965.2;;;2.2;81.1
62980;BME280;49075;53.988;27.678;2023-02-18T09:11:18;965.2;;;2.1;80.8
62980;BME280;49075;53.988;27.678;2023-02-18T09:16:44;965.3;;;2.1;80.8
62980;BME280;49075;53.988;27.678;2023-02-18T09:21:18;965.3;;;2.2;80.7
62980;BME280;49075;53.988;27.678;2023-02-18T09:27:06;965.3;;;2.1;80.8
62980;BME280;49075;53.988;27.678;2023-02-18T09:31:50;965.3;;;1.9;80.8
62980;BME280;49075;53.988;27.678;2023-02-18T09:36:32;965.3;;;1.9;80.8
62980;BME280;49075;53.988;27.678;2023-02-18T09:42:07;965.3;;;1.8;80.9
62980;BME280;49075;53.988;27.678;2023-02-18T09:46:37;965.3;;;1.9;80.6
62980;BME280;49075;53.988;27.678;2023-02-18T09:52:09;965.3;;;2;80.7
62980;BME280;49075;53.988;27.678;2023-02-18T09:56:36;965.2;;;2;80.3
62980;BME280;49075;53.988;27.678;2023-02-18T10:01:44;965.2;;;2;80.7
62980;BME280;49075;53.988;27.678;2023-02-18T10:06:50;965.1;;;1.9;80.3
62980;BME280;49075;53.988;27.678;2023-02-18T10:11:21;965.1;;;1.9;80.4
62980;BME280;49075;53.988;27.678;2023-02-18T10:17:06;965.1;;;1.8;80.5
62980;BME280;49075;53.988;27.678;2023-02-18T10:21:24;965.1;;;1.8;80.5
62980;BME280;49075;53.988;27.678;2023-02-18T10:26:18;965;;;1.7;80.7
62980;BME280;49075;53.988;27.678;2023-02-18T10:32:03;965.1;;;1.8;80.7
62980;BME280;49075;53.988;27.678;2023-02-18T10:36:21;965.1;;;1.7;80.3
62980;BME280;49075;53.988;27.678;2023-02-18T10:42:02;965.2;;;1.9;80.3
62980;BME280;49075;53.988;27.678;2023-02-18T10:46:36;965.1;;;1.8;80.1
62980;BME280;49075;53.988;27.678;2023-02-18T10:51:30;965.2;;;1.9;80.2
62980;BME280;49075;53.988;27.678;2023-02-18T10:57:04;965.2;;;1.9;79.9
62980;BME280;49075;53.988;27.678;2023-02-18T11:01:18;965.2;;;1.9;80.2
62980;BME280;49075;53.988;27.678;2023-02-18T11:07:09;965.2;;;1.8;80.2
62980;BME280;49075;53.988;27.678;2023-02-18T11:11:36;965.2;;;1.9;80.2
62980;BME280;49075;53.988;27.678;2023-02-18T11:16:58;965.3;;;1.9;80.1
62980;BME280;49075;53.988;27.678;2023-02-18T11:21:50;965.3;;;1.9;80.1
62980;BME280;49075;53.988;27.678;2023-02-18T11:26:50;965.2;;;1.8;80.1
62980;BME280;49075;53.988;27.678;2023-02-18T11:31:52;965.3;;;1.8;79.9
62980;BME280;49075;53.988;27.678;2023-02-18T11:36:36;965.3;;;1.9;79.7
62980;BME280;49075;53.988;27.678;2023-02-18T11:41:58;965.4;;;2.1;79.4
62980;BME280;49075;53.988;27.678;2023-02-18T11:46:59;965.4;;;2.2;79
62980;BME280;49075;53.988;27.678;2023-02-18T11:51:32;965.4;;;2.2;79
62980;BME280;49075;53.988;27.678;2023-02-18T11:57:09;965.5;;;2.3;78.8
62980;BME280;49075;53.988;27.678;2023-02-18T12:01:20;965.5;;;2.3;78.7
62980;BME280;49075;53.988;27.678;2023-02-18T12:06:19;965.6;;;2.7;78
62980;BME280;49075;53.988;27.678;2023-02-18T12:11:51;965.6;;;3;77.2
62980;BME280;49075;53.988;27.678;2023-02-18T12:16:37;965.6;;;2.9;76.4
62980;BME280;49075;53.988;27.678;2023-02-18T12:22:08;965.6;;;3.1;76.9
62980;BME280;49075;53.988;27.678;2023-02-18T12:26:38;965.7;;;2.9;76.4
62980;BME280;49075;53.988;27.678;2023-02-18T12:31:36;965.7;;;2.9;76.8
62980;BME280;49075;53.988;27.678;2023-02-18T12:36:53;965.7;;;2.8;76.4
62980;BME280;49075;53.988;27.678;2023-02-18T12:41:38;965.9;;;2.5;77
62980;BME280;49075;53.988;27.678;2023-02-18T12:47:39;965.9;;;2.6;76.8
62980;BME280;49075;53.988;27.678;2023-02-18T12:51:37;966;;;2.5;76.8
62980;BME280;49075;53.988;27.678;2023-02-18T12:56:47;966;;;2.4;76.8
62980;BME280;49075;53.988;27.678;2023-02-18T13:01:52;966;;;2.1;77.5
62980;BME280;49075;53.988;27.678;2023-02-18T13:06:58;965.9;;;2.1;77.6
62980;BME280;49075;53.988;27.678;2023-02-18T13:12:01;966;;;2.1;78
62980;BME280;49075;53.988;27.678;2023-02-18T13:16:18;966.1;;;2;78
62980;BME280;49075;53.988;27.678;2023-02-18T13:21:30;966.1;;;1.9;78.3
62980;BME280;49075;53.988;27.678;2023-02-18T13:26:18;966.1;;;1.9;78.4
62980;BME280;49075;53.988;27.678;2023-02-18T13:31:38;966.1;;;1.8;78.4
62980;BME280;49075;53.988;27.678;2023-02-18T13:37:07;966.2;;;1.8;78.5
62980;BME280;49075;53.988;27.678;2023-02-18T13:41:18;966.3;;;1.8;78.5
62980;BME280;49075;53.988;27.678;2023-02-18T13:46:58;966.3;;;1.7;78.7
62980;BME280;49075;53.988;27.678;2023-02-18T13:51:50;966.2;;;1.5;79.2
62980;BME280;49075;53.988;27.678;2023-02-18T13:56:26;966.3;;;1.6;79
62980;BME280;49075;53.988;27.678;2023-02-18T14:02:07;966.4;;;1.4;79.1
62980;BME280;49075;53.988;27.678;2023-02-18T14:06:19;966.4;;;1.3;79.6
62980;BME280;49075;53.988;27.678;2023-02-18T14:11:45;966.5;;;1.1;79.9
62980;BME280;49075;53.988;27.678;2023-02-18T14:17:28;966.6;;;1.2;79.5
62980;BME280;49075;53.988;27.678;2023-02-18T14:21:44;966.6;;;1.1;79.4
62980;BME280;49075;53.988;27.678;2023-02-18T14:26:45;966.6;;;1.1;79.4
62980;BME280;49075;53.988;27.678;2023-02-18T14:31:28;966.6;;;1;79.5
62980;BME280;49075;53.988;27.678;2023-02-18T14:36:22;966.7;;;1.1;79.3
62980;BME280;49075;53.988;27.678;2023-02-18T14:42:09;966.7;;;0.9;79.8
62980;BME280;49075;53.988;27.678;2023-02-18T14:46:34;966.8;;;1;79.5
62980;BME280;49075;53.988;27.678;2023-02-18T14:52:00;966.7;;;0.9;79
62980;BME280;49075;53.988;27.678;2023-02-18T14:56:41;966.7;;;0.9;78.7
62980;BME280;49075;53.988;27.678;2023-02-18T15:01:18;966.7;;;0.9;77.9
62980;BME280;49075;53.988;27.678;2023-02-18T15:07:08;966.8;;;1;77.9
62980;BME280;49075;53.988;27.678;2023-02-18T15:11:34;966.8;;;0.8;78.3
62980;BME280;49075;53.988;27.678;2023-02-18T15:16:58;966.9;;;0.9;78.4
62980;BME280;49075;53.988;27.678;2023-02-18T15:21:38;967;;;0.9;78.3
62980;BME280;49075;53.988;27.678;2023-02-18T15:26:32;967;;;0.9;78.3
62980;BME280;49075;53.988;27.678;2023-02-18T15:32:13;967.1;;;0.8;78.1
62980;BME280;49075;53.988;27.678;2023-02-18T15:36:32;967.2;;;0.9;78.2
62980;BME280;49075;53.988;27.678;2023-02-18T15:41:58;967.2;;;0.8;78
62980;BME280;49075;53.988;27.678;2023-02-18T15:46:40;967.2;;;0.8;78
62980;BME280;49075;53.988;27.678;2023-02-18T15:51:32;967.2;;;0.7;77.4
62980;BME280;49075;53.988;27.678;2023-02-18T15:57:06;967.2;;;0.8;77.2
62980;BME280;49075;53.988;27.678;2023-02-18T16:01:32;967.3;;;0.8;76.5
62980;BME280;49075;53.988;27.678;2023-02-18T16:07:15;967.3;;;1;76.1
62980;BME280;49075;53.988;27.678;2023-02-18T16:11:24;967.4;;;0.9;75.7
62980;BME280;49075;53.988;27.678;2023-02-18T16:16:33;967.5;;;0.9;75.6
62980;BME280;49075;53.988;27.678;2023-02-18T16:22:17;967.5;;;0.9;75.3
62980;BME280;49075;53.988;27.678;2023-02-18T16:26:44;967.6;;;0.9;75.2
62980;BME280;49075;53.988;27.678;2023-02-18T16:32:00;967.6;;;0.9;75.2
62980;BME280;49075;53.988;27.678;2023-02-18T16:36:52;967.7;;;1;75.4
62980;BME280;49075;53.988;27.678;2023-02-18T16:41:46;967.7;;;1.1;74.5
62980;BME280;49075;53.988;27.678;2023-02-18T16:47:06;967.7;;;1.1;74.5
62980;BME280;49075;53.988;27.678;2023-02-18T16:51:46;967.8;;;1.2;73.6
62980;BME280;49075;53.988;27.678;2023-02-18T16:57:00;967.9;;;1;74
62980;BME280;49075;53.988;27.678;2023-02-18T17:01:39;967.9;;;0.8;73.9
62980;BME280;49075;53.988;27.678;2023-02-18T17:06:18;967.9;;;1;73.5
62980;BME280;49075;53.988;27.678;2023-02-18T17:12:08;968.1;;;1.1;73.8
62980;BME280;49075;53.988;27.678;2023-02-18T17:16:52;968.2;;;1;73.2
62980;BME280;49075;53.988;27.678;2023-02-18T17:21:58;968.2;;;1.1;73
62980;BME280;49075;53.988;27.678;2023-02-18T17:26:54;968.2;;;1;72.7
62980;BME280;49075;53.988;27.678;2023-02-18T17:31:46;968.3;;;0.9;72.9
62980;BME280;49075;53.988;27.678;2023-02-18T17:37:08;968.4;;;1;73.5
62980;BME280;49075;53.988;27.678;2023-02-18T17:41:44;968.4;;;1;73.7
62980;BME280;49075;53.988;27.678;2023-02-18T17:47:00;968.4;;;1.2;73.8
62980;BME280;49075;53.988;27.678;2023-02-18T17:51:32;968.3;;;1.3;73
62980;BME280;49075;53.988;27.678;2023-02-18T17:56:32;968.3;;;1.1;73.2
62980;BME280;49075;53.988;27.678;2023-02-18T18:02:08;968.4;;;1.1;73.4
62980;BME280;49075;53.988;27.678;2023-02-18T18:06:30;968.4;;;1.2;73.1
62980;BME280;49075;53.988;27.678;2023-02-18T18:12:00;968.4;;;1.1;72.7
62980;BME280;49075;53.988;27.678;2023-02-18T18:16:36;968.3;;;1;72.7
62980;BME280;49075;53.988;27.678;2023-02-18T18:21:38;968.3;;;0.9;72
62980;BME280;49075;53.988;27.678;2023-02-18T18:27:08;968.4;;;1;72.4
62980;BME280;49075;53.988;27.678;2023-02-18T18:31:30;968.4;;;0.9;71.1
62980;BME280;49075;53.988;27.678;2023-02-18T18:37:06;968.4;;;1;70.9
62980;BME280;49075;53.988;27.678;2023-02-18T18:41:54;968.4;;;1;70.9
62980;BME280;49075;53.988;27.678;2023-02-18T18:47:10;968.4;;;0.9;70.5
62980;BME280;49075;53.988;27.678;2023-02-18T18:51:19;968.4;;;1.2;69.9
62980;BME280;49075;53.988;27.678;2023-02-18T18:57:00;968.4;;;1.1;70.2
62980;BME280;49075;53.988;27.678;2023-02-18T19:02:08;968.4;;;1.1;69.9
62980;BME280;49075;53.988;27.678;2023-02-18T19:06:50;968.5;;;0.9;69.1
62980;BME280;49075;53.988;27.678;2023-02-18T19:11:54;968.4;;;1;69.9
62980;BME280;49075;53.988;27.678;2023-02-18T19:16:52;968.5;;;1.1;69.7
62980;BME280;49075;53.988;27.678;2023-02-18T19:22:00;968.5;;;1;69.8
62980;BME280;49075;53.988;27.678;2023-02-18T19:27:06;968.5;;;0.9;69.3
62980;BME280;49075;53.988;27.678;2023-02-18T19:31:52;968.6;;;0.8;70.4
62980;BME280;49075;53.988;27.678;2023-02-18T19:37:08;968.5;;;0.7;70.3
62980;BME280;49075;53.988;27.678;2023-02-18T19:41:44;968.6;;;0.7;70.7
62980;BME280;49075;53.988;27.678;2023-02-18T19:46:18;968.6;;;0.7;71.1
62980;BME280;49075;53.988;27.678;2023-02-18T19:51:55;968.7;;;0.5;70.7
62980;BME280;49075;53.988;27.678;2023-02-18T19:56:50;968.7;;;0.5;71.2
62980;BME280;49075;53.988;27.678;2023-02-18T20:02:09;968.8;;;0.5;70.5
62980;BME280;49075;53.988;27.678;2023-02-18T20:06:50;968.8;;;0.6;71
62980;BME280;49075;53.988;27.678;2023-02-18T20:11:32;968.8;;;0.6;70.6
62980;BME280;49075;53.988;27.678;2023-02-18T20:17:10;968.8;;;0.5;71
62980;BME280;49075;53.988;27.678;2023-02-18T20:21:53;968.8;;;0.5;70.9
62980;BME280;49075;53.988;27.678;2023-02-18T20:27:10;968.8;;;0.5;71.2
62980;BME280;49075;53.988;27.678;2023-02-18T20:31:46;968.9;;;0.5;70.8
62980;BME280;49075;53.988;27.678;2023-02-18T20:36:18;968.9;;;0.4;70.8
62980;BME280;49075;53.988;27.678;2023-02-18T20:42:06;969;;;0.4;70.8
62980;BME280;49075;53.988;27.678;2023-02-18T20:46:52;969;;;0.4;71
62980;BME280;49075;53.988;27.678;2023-02-18T20:52:08;969;;;0.4;71
62980;BME280;49075;53.988;27.678;2023-02-18T20:56:46;969;;;0.4;71.4
62980;BME280;49075;53.988;27.678;2023-02-18T21:01:30;969;;;0.3;71.4
62980;BME280;49075;53.988;27.678;2023-02-18T21:07:10;969.1;;;0.3;71.8
62980;BME280;49075;53.988;27.678;2023-02-18T21:11:54;969.1;;;0.2;71.8
62980;BME280;49075;53.988;27.678;2023-02-18T21:17:10;969.1;;;0.2;71.9
62980;BME280;49075;53.988;27.678;2023-02-18T21:21:54;969.1;;;0.2;71.5
62980;BME280;49075;53.988;27.678;2023-02-18T21:26:30;969.2;;;0.3;71.8
62980;BME280;49075;53.988;27.678;2023-02-18T21:32:08;969.3;;;0.2;71.4
62980;BME280;49075;53.988;27.678;2023-02-18T21:36:50;969.3;;;0.3;71.8
62980;BME280;49075;53.988;27.678;2023-02-18T21:42:08;969.2;;;0.3;71.3
62980;BME280;49075;53.988;27.678;2023-02-18T21:46:19;969.3;;;0.3;71.5
62980;BME280;49075;53.988;27.678;2023-02-18T21:51:18;969.3;;;0.3;70.8
62980;BME280;49075;53.988;27.678;2023-02-18T21:57:11;969.3;;;0.4;71.2
62980;BME280;49075;53.988;27.678;2023-02-18T22:01:50;969.4;;;0.3;70.3
62980;BME280;49075;53.988;27.678;2023-02-18T22:07:06;969.4;;;0.3;70.7
62980;BME280;49075;53.988;27.678;2023-02-18T22:11:44;969.4;;;0.2;70.2
62980;BME280;49075;53.988;27.678;2023-02-18T22:16:30;969.5;;;0.2;70.7
62980;BME280;49075;53.988;27.678;2023-02-18T22:22:08;969.5;;;0.2;70.1
62980;BME280;49075;53.988;27.678;2023-02-18T22:26:50;969.5;;;0.3;70.6
62980;BME280;49075;53.988;27.678;2023-02-18T22:32:08;969.5;;;0.2;70.1
62980;BME280;49075;53.988;27.678;2023-02-18T22:36:32;969.5;;;0.2;70.4
62980;BME280;49075;53.988;27.678;2023-02-18T22:41:46;969.6;;;0.2;69.9
62980;BME280;49075;53.988;27.678;2023-02-18T22:46:46;969.6;;;0.3;70.2
62980;BME280;49075;53.988;27.678;2023-02-18T22:51:52;969.6;;;0.1;69.6
62980;BME280;49075;53.988;27.678;2023-02-18T22:57:06;969.6;;;0.2;70.1
62980;BME280;49075;53.988;27.678;2023-02-18T23:01:18;969.6;;;0.1;70
62980;BME280;49075;53.988;27.678;2023-02-18T23:06:46;969.6;;;0.2;69.7
62980;BME280;49075;53.988;27.678;2023-02-18T23:11:32;969.7;;;0.3;69.8
62980;BME280;49075;53.988;27.678;2023-02-18T23:16:52;969.6;;;0.3;69.4
62980;BME280;49075;53.988;27.678;2023-02-18T23:22:08;969.6;;;0.2;69.6
62980;BME280;49075;53.988;27.678;2023-02-18T23:26:32;969.7;;;0.2;69
62980;BME280;49075;53.988;27.678;2023-02-18T23:31:46;969.7;;;0.2;69.6
62980;BME280;49075;53.988;27.678;2023-02-18T23:36:18;969.8;;;0.1;69
62980;BME280;49075;53.988;27.678;2023-02-18T23:41:52;969.8;;;0.2;69.5
62980;BME280;49075;53.988;27.678;2023-02-18T23:47:08;969.8;;;0.1;69
62980;BME280;49075;53.988;27.678;2023-02-18T23:52:08;969.8;;;0.1;69.4
62980;BME280;49075;53.988;27.678;2023-02-18T23:56:30;969.9;;;0.1;69
